createdAt,value
2022-12-03T00:02:13.794Z,15.38
2022-12-03T00:04:40.525Z,17.02
2022-12-03T00:07:06.993Z,15.32
2022-12-03T00:09:34.341Z,17.02
2022-12-03T00:12:00.812Z,18.73
2022-12-03T00:14:27.342Z,16.05
2022-12-03T00:16:53.898Z,14.98
2022-12-03T00:19:20.502Z,16.70
2022-12-03T00:21:47.065Z,18.67
2022-12-03T00:24:13.530Z,13.90
2022-12-03T00:26:40.121Z,20.92
2022-12-03T00:29:06.577Z,14.50
2022-12-03T00:31:33.123Z,14.30
2022-12-03T00:42:09.406Z,13.68
2022-12-03T00:44:36.677Z,13.07
2022-12-03T00:47:10.130Z,14.18
2022-12-03T00:49:36.688Z,14.10
2022-12-03T00:52:03.249Z,14.20
2022-12-03T00:54:32.130Z,15.88
2022-12-03T00:56:59.171Z,12.60
2022-12-03T00:59:25.841Z,14.20
2022-12-03T01:01:52.719Z,13.98
2022-12-03T01:04:19.397Z,14.48
2022-12-03T01:06:46.153Z,17.25
2022-12-03T01:09:12.686Z,16.10
2022-12-03T01:11:39.297Z,14.43
2022-12-03T01:14:11.038Z,15.02
2022-12-03T01:16:38.132Z,15.18
2022-12-03T01:19:06.238Z,13.57
2022-12-03T01:21:33.306Z,12.98
2022-12-03T01:24:00.369Z,15.98
2022-12-03T01:26:26.806Z,14.73
2022-12-03T01:28:53.434Z,15.18
2022-12-03T01:31:58.643Z,17.08
2022-12-03T01:34:26.069Z,15.55
2022-12-03T01:36:52.726Z,14.27
2022-12-03T01:39:19.577Z,14.10
2022-12-03T01:41:48.290Z,15.10
2022-12-03T01:44:32.856Z,21.05
2022-12-03T01:47:02.845Z,15.48
2022-12-03T01:49:40.687Z,14.10
2022-12-03T01:52:11.925Z,14.15
2022-12-03T01:57:20.100Z,13.90
2022-12-03T01:59:47.499Z,13.00
2022-12-03T02:02:28.149Z,14.20
2022-12-03T02:04:55.504Z,12.75
2022-12-03T02:07:31.667Z,13.07
2022-12-03T02:10:01.459Z,14.48
2022-12-03T02:12:38.445Z,17.23
2022-12-03T02:15:07.140Z,15.15
2022-12-03T02:17:34.020Z,13.93
2022-12-03T02:20:01.679Z,13.10
2022-12-03T02:22:31.149Z,14.57
2022-12-03T02:25:21.277Z,14.13
2022-12-03T02:27:48.414Z,13.82
2022-12-03T02:30:18.792Z,13.50
2022-12-03T02:32:49.658Z,13.88
2022-12-03T02:35:23.290Z,13.85
2022-12-03T02:37:53.708Z,16.73
2022-12-03T02:40:27.262Z,14.65
2022-12-03T02:42:58.644Z,14.13
2022-12-03T02:45:32.543Z,13.63
2022-12-03T02:48:10.001Z,16.23
2022-12-03T02:50:41.404Z,13.95
2022-12-03T02:53:14.445Z,12.75
2022-12-03T02:55:41.796Z,14.65
2022-12-03T02:58:09.703Z,14.30
2022-12-03T03:00:37.268Z,14.50
2022-12-03T03:03:06.401Z,14.00
2022-12-03T03:05:35.304Z,13.35
2022-12-03T03:08:02.724Z,13.95
2022-12-03T03:10:30.838Z,13.93
2022-12-03T03:12:57.585Z,14.13
2022-12-03T03:15:25.182Z,13.70
2022-12-03T03:17:51.991Z,14.32
2022-12-03T03:20:24.433Z,14.88
2022-12-03T03:22:50.880Z,13.55
2022-12-03T03:25:21.202Z,13.60
2022-12-03T03:27:47.861Z,13.98
2022-12-03T03:30:14.788Z,14.00
2022-12-03T03:32:42.612Z,14.40
2022-12-03T03:35:10.779Z,13.65
2022-12-03T03:37:38.212Z,14.27
2022-12-03T03:40:05.308Z,13.63
2022-12-03T03:42:31.882Z,14.35
2022-12-03T03:44:58.560Z,14.73
2022-12-03T03:47:25.750Z,13.60
2022-12-03T03:49:53.002Z,14.82
2022-12-03T03:52:20.566Z,14.52
2022-12-03T03:54:47.385Z,13.15
2022-12-03T03:57:14.477Z,13.93
2022-12-03T03:59:41.431Z,14.00
2022-12-03T04:02:17.781Z,13.90
2022-12-03T04:04:44.534Z,14.05
2022-12-03T04:07:13.240Z,14.38
2022-12-03T04:09:39.759Z,14.57
2022-12-03T04:12:24.843Z,14.25
2022-12-03T04:14:51.713Z,13.55
2022-12-03T04:17:18.508Z,14.38
2022-12-03T04:19:45.069Z,14.20
2022-12-03T04:22:30.162Z,15.27
2022-12-03T04:25:16.609Z,14.30
2022-12-03T04:28:02.171Z,15.10
2022-12-03T04:30:28.659Z,14.95
2022-12-03T04:33:13.705Z,12.93
2022-12-03T04:35:42.814Z,13.65
2022-12-03T04:38:14.852Z,14.15
2022-12-03T04:41:04.991Z,13.15
2022-12-03T04:43:55.218Z,12.95
2022-12-03T04:46:22.184Z,13.60
2022-12-03T04:48:48.858Z,14.48
2022-12-03T04:51:15.383Z,13.38
2022-12-03T04:53:46.058Z,14.70
2022-12-03T04:56:12.948Z,13.70
2022-12-03T04:58:39.451Z,13.10
2022-12-03T05:01:06.046Z,14.65
2022-12-03T05:03:32.649Z,13.77
2022-12-03T05:05:59.154Z,13.35
2022-12-03T05:08:25.723Z,14.60
2022-12-03T05:10:52.152Z,13.55
2022-12-03T05:13:18.581Z,13.52
2022-12-03T05:15:45.017Z,13.55
2022-12-03T05:18:11.526Z,13.63
2022-12-03T05:20:49.795Z,13.57
2022-12-03T05:23:19.420Z,13.40
2022-12-03T05:25:45.923Z,13.82
2022-12-03T05:28:12.414Z,14.05
2022-12-03T05:30:38.992Z,13.40
2022-12-03T05:33:05.667Z,12.90
2022-12-03T05:35:32.224Z,13.32
2022-12-03T05:37:58.765Z,14.32
2022-12-03T05:40:25.308Z,13.43
2022-12-03T05:42:54.604Z,13.35
2022-12-03T05:45:22.491Z,13.27
2022-12-03T05:47:48.927Z,13.70
2022-12-03T05:50:15.489Z,13.10
2022-12-03T05:52:41.895Z,13.15
2022-12-03T05:55:09.211Z,14.00
2022-12-03T05:57:35.779Z,14.05
2022-12-03T06:00:02.368Z,13.65
2022-12-03T06:02:28.951Z,14.57
2022-12-03T06:04:55.986Z,14.13
2022-12-03T06:07:22.631Z,14.10
2022-12-03T06:09:49.277Z,13.40
2022-12-03T06:12:16.394Z,13.48
2022-12-03T06:14:42.936Z,13.63
2022-12-03T06:17:09.479Z,13.27
2022-12-03T06:19:36.039Z,12.93
2022-12-03T06:22:02.522Z,13.02
2022-12-03T06:24:28.927Z,13.65
2022-12-03T06:26:55.643Z,13.68
2022-12-03T06:29:22.127Z,14.35
2022-12-03T06:31:48.623Z,13.65
2022-12-03T06:34:15.116Z,14.10
2022-12-03T06:36:41.551Z,16.08
2022-12-03T06:39:08.070Z,12.60
2022-12-03T06:41:34.650Z,12.98
2022-12-03T06:44:01.070Z,13.20
2022-12-03T06:46:27.577Z,13.85
2022-12-03T06:48:54.070Z,13.35
2022-12-03T06:51:20.558Z,13.77
2022-12-03T06:53:46.966Z,13.75
2022-12-03T06:56:13.399Z,14.13
2022-12-03T06:58:39.776Z,12.88
2022-12-03T07:01:06.195Z,13.25
2022-12-03T07:03:32.668Z,14.88
2022-12-03T07:05:59.044Z,13.25
2022-12-03T07:08:25.473Z,13.50
2022-12-03T07:10:51.942Z,13.32
2022-12-03T07:13:18.373Z,12.18
2022-12-03T07:15:45.089Z,12.25
2022-12-03T07:18:14.828Z,14.18
2022-12-03T07:20:41.447Z,13.23
2022-12-03T07:23:08.711Z,12.57
2022-12-03T07:25:35.543Z,12.98
2022-12-03T07:28:02.032Z,11.70
2022-12-03T07:30:28.627Z,12.38
2022-12-03T07:32:55.488Z,12.27
2022-12-03T07:35:22.032Z,12.60
2022-12-03T07:37:48.589Z,13.38
2022-12-03T07:40:15.220Z,12.95
2022-12-03T07:42:42.772Z,12.48
2022-12-03T07:45:10.163Z,14.23
2022-12-03T07:47:36.731Z,12.52
2022-12-03T07:50:03.366Z,12.68
2022-12-03T07:52:30.164Z,12.90
2022-12-03T07:55:04.338Z,12.60
2022-12-03T07:57:30.860Z,12.55
2022-12-03T07:59:57.483Z,12.55
2022-12-03T08:02:24.150Z,12.38
2022-12-03T08:04:50.952Z,12.35
2022-12-03T08:07:18.026Z,12.38
2022-12-03T08:09:44.806Z,11.23
2022-12-03T08:12:50.690Z,12.57
2022-12-03T08:15:20.171Z,13.88
2022-12-03T08:17:53.521Z,12.35
2022-12-03T08:20:25.532Z,13.70
2022-12-03T08:22:54.380Z,13.30
2022-12-03T08:25:30.955Z,14.10
2022-12-03T08:28:21.552Z,13.73
2022-12-03T08:31:32.901Z,13.48
2022-12-03T08:34:17.620Z,14.00
2022-12-03T08:36:45.134Z,13.93
2022-12-03T08:39:28.172Z,13.93
2022-12-03T08:42:18.270Z,14.25
2022-12-03T08:44:44.963Z,12.15
2022-12-03T08:47:23.299Z,12.38
2022-12-03T08:50:17.361Z,13.05
2022-12-03T08:52:43.964Z,13.07
2022-12-03T08:55:33.080Z,13.20
2022-12-03T08:57:59.769Z,12.15
2022-12-03T09:00:26.626Z,11.93
2022-12-03T09:02:58.952Z,12.00
2022-12-03T09:05:32.485Z,11.85
2022-12-03T09:07:59.228Z,11.98
2022-12-03T09:10:25.847Z,11.68
2022-12-03T09:12:52.695Z,12.35
2022-12-03T09:15:19.444Z,13.95
2022-12-03T09:17:46.198Z,12.07
2022-12-03T09:20:13.062Z,12.63
2022-12-03T09:22:39.761Z,11.70
2022-12-03T09:25:07.028Z,12.18
2022-12-03T09:27:33.758Z,11.27
2022-12-03T09:30:00.603Z,12.02
2022-12-03T09:32:27.724Z,11.63
2022-12-03T09:34:54.959Z,12.52
2022-12-03T09:37:22.449Z,11.73
2022-12-03T09:39:49.495Z,11.80
2022-12-03T09:42:16.668Z,12.55
2022-12-03T09:44:44.290Z,10.77
2022-12-03T09:47:11.360Z,12.27
2022-12-03T09:49:39.154Z,11.73
2022-12-03T09:52:07.255Z,11.95
2022-12-03T09:54:34.640Z,12.05
2022-12-03T09:57:04.346Z,12.23
2022-12-03T09:59:35.010Z,12.55
2022-12-03T10:02:02.735Z,10.93
2022-12-03T10:04:30.061Z,12.48
2022-12-03T10:06:58.552Z,11.68
2022-12-03T10:09:30.194Z,12.18
2022-12-03T10:11:59.208Z,11.77
2022-12-03T10:14:26.996Z,10.95
2022-12-03T10:16:54.200Z,11.65
2022-12-03T10:19:27.751Z,11.75
2022-12-03T10:21:59.249Z,11.88
2022-12-03T10:24:34.866Z,11.65
2022-12-03T10:27:32.822Z,11.40
2022-12-03T10:30:04.838Z,11.77
2022-12-03T10:32:44.375Z,10.82
2022-12-03T10:35:15.662Z,12.60
2022-12-03T10:40:27.921Z,11.30
2022-12-03T10:43:14.346Z,12.40
2022-12-03T10:45:42.969Z,11.70
2022-12-03T10:48:21.904Z,11.80
2022-12-03T10:50:57.375Z,10.23
2022-12-03T10:53:28.822Z,10.25
2022-12-03T10:55:59.889Z,10.32
2022-12-03T10:58:31.447Z,10.15
2022-12-03T11:01:01.264Z,10.65
2022-12-03T11:03:30.894Z,11.05
2022-12-03T11:06:00.799Z,10.07
2022-12-03T11:08:31.854Z,9.60
2022-12-03T11:11:04.751Z,9.68
2022-12-03T11:13:34.193Z,10.75
2022-12-03T11:16:02.655Z,10.02
2022-12-03T11:18:38.362Z,10.15
2022-12-03T11:21:05.359Z,10.13
2022-12-03T11:23:47.049Z,10.63
2022-12-03T11:26:28.150Z,10.65
2022-12-03T11:28:55.651Z,10.05
2022-12-03T11:31:39.129Z,13.80
2022-12-03T11:34:20.984Z,10.82
2022-12-03T11:37:10.130Z,10.32
2022-12-03T11:39:52.453Z,8.90
2022-12-03T11:42:28.478Z,11.60
2022-12-03T11:45:04.911Z,8.95
2022-12-03T11:48:18.776Z,9.32
2022-12-03T11:50:52.302Z,7.93
2022-12-03T11:53:24.997Z,7.65
2022-12-03T11:56:09.095Z,7.60
2022-12-03T12:01:06.916Z,7.93
2022-12-03T12:03:45.688Z,8.23
2022-12-03T12:06:15.669Z,7.60
2022-12-03T12:08:56.381Z,7.88
2022-12-03T12:11:30.126Z,7.50
2022-12-03T12:14:14.567Z,8.15
2022-12-03T12:16:50.747Z,7.22
2022-12-03T12:19:38.060Z,8.27
2022-12-03T12:22:26.674Z,8.07
2022-12-03T12:24:57.441Z,7.03
2022-12-03T12:27:35.512Z,6.95
2022-12-03T12:30:14.021Z,7.97
2022-12-03T12:32:45.956Z,8.18
2022-12-03T12:35:25.851Z,8.05
2022-12-03T12:37:59.636Z,8.35
2022-12-03T12:40:32.252Z,7.55
2022-12-03T12:43:15.506Z,7.47
2022-12-03T12:45:46.259Z,8.10
2022-12-03T12:48:20.348Z,7.68
2022-12-03T12:50:52.939Z,7.05
2022-12-03T12:53:24.870Z,7.50
2022-12-03T12:55:56.142Z,6.93
2022-12-03T13:00:57.155Z,7.05
2022-12-03T13:03:28.262Z,6.90
2022-12-03T13:05:57.631Z,6.57
2022-12-03T13:08:27.988Z,6.70
2022-12-03T13:10:57.567Z,7.10
2022-12-03T13:13:44.220Z,6.47
2022-12-03T13:16:38.023Z,7.82
2022-12-03T13:19:16.316Z,7.18
2022-12-03T13:21:44.442Z,6.95
2022-12-03T13:24:29.330Z,7.57
2022-12-03T13:26:56.645Z,7.20
2022-12-03T13:29:23.875Z,7.35
2022-12-03T13:31:55.631Z,6.15
2022-12-03T13:34:25.674Z,7.05
2022-12-03T13:39:46.505Z,6.63
2022-12-03T13:42:50.404Z,7.00
2022-12-03T13:45:29.110Z,7.57
2022-12-03T13:47:58.282Z,8.68
2022-12-03T13:50:37.178Z,8.30
2022-12-03T13:53:09.444Z,7.50
2022-12-03T13:55:39.974Z,7.15
2022-12-03T13:58:06.437Z,7.38
2022-12-03T14:00:32.969Z,7.00
2022-12-03T14:02:59.453Z,6.55
2022-12-03T14:05:25.935Z,7.50
2022-12-03T14:07:58.026Z,6.75
2022-12-03T14:10:24.651Z,6.65
2022-12-03T14:12:51.205Z,7.10
2022-12-03T14:15:18.066Z,7.18
2022-12-03T14:17:44.559Z,7.07
2022-12-03T14:20:11.784Z,7.93
2022-12-03T14:22:39.136Z,7.15
2022-12-03T14:25:06.990Z,7.80
2022-12-03T14:27:34.228Z,7.60
2022-12-03T14:30:00.846Z,7.45
2022-12-03T14:32:27.375Z,7.82
2022-12-03T14:34:53.796Z,7.55
2022-12-03T14:37:20.686Z,6.97
2022-12-03T14:39:47.103Z,7.85
2022-12-03T14:42:13.748Z,8.98
2022-12-03T14:44:46.491Z,6.80
2022-12-03T14:47:16.297Z,6.93
2022-12-03T14:49:42.983Z,7.20
2022-12-03T14:52:12.570Z,6.95
2022-12-03T14:54:42.486Z,7.57
2022-12-03T14:57:11.475Z,6.63
2022-12-03T14:59:41.675Z,6.50
2022-12-03T15:02:09.358Z,7.30
2022-12-03T15:04:36.211Z,7.05
2022-12-03T15:07:03.072Z,7.13
2022-12-03T15:09:32.831Z,8.70
2022-12-03T15:12:00.094Z,8.02
2022-12-03T15:14:27.296Z,6.50
2022-12-03T15:16:53.970Z,7.07
2022-12-03T15:19:20.627Z,9.40
2022-12-03T15:21:52.559Z,6.50
2022-12-03T15:24:19.445Z,6.65
2022-12-03T15:26:46.459Z,7.00
2022-12-03T15:29:13.697Z,7.10
2022-12-03T15:31:44.362Z,8.20
2022-12-03T15:34:11.114Z,8.02
2022-12-03T15:36:37.884Z,6.85
2022-12-03T15:39:07.371Z,7.35
2022-12-03T15:41:34.077Z,6.93
2022-12-03T15:44:02.249Z,7.68
2022-12-03T15:46:29.740Z,7.60
2022-12-03T15:48:56.486Z,6.88
2022-12-03T15:51:23.830Z,6.90
2022-12-03T15:53:50.351Z,9.40
2022-12-03T15:56:16.944Z,8.43
2022-12-03T15:58:44.042Z,9.13
2022-12-03T16:01:13.346Z,9.68
2022-12-03T16:03:42.725Z,8.35
2022-12-03T16:06:09.694Z,8.18
2022-12-03T16:08:36.275Z,8.02
2022-12-03T16:13:47.217Z,7.55
2022-12-03T16:16:13.904Z,7.63
2022-12-03T16:18:40.621Z,8.27
2022-12-03T16:21:07.197Z,7.07
2022-12-03T16:23:34.128Z,6.45
2022-12-03T16:26:00.529Z,7.65
2022-12-03T16:28:27.134Z,8.68
2022-12-03T16:30:53.589Z,7.78
2022-12-03T16:33:25.624Z,7.65
2022-12-03T16:35:54.057Z,8.68
2022-12-03T16:38:21.555Z,8.50
2022-12-03T16:40:48.579Z,8.32
2022-12-03T16:43:15.242Z,7.68
2022-12-03T16:46:01.096Z,7.65
2022-12-03T16:48:30.825Z,8.30
2022-12-03T16:50:59.874Z,8.85
2022-12-03T16:53:26.945Z,9.32
2022-12-03T16:55:53.805Z,8.57
2022-12-03T16:58:21.771Z,9.18
2022-12-03T17:00:51.372Z,8.30
2022-12-03T17:03:20.993Z,9.77
2022-12-03T17:05:49.254Z,7.47
2022-12-03T17:08:16.933Z,10.55
2022-12-03T17:10:46.819Z,8.32
2022-12-03T17:13:14.253Z,8.45
2022-12-03T17:15:41.947Z,8.43
2022-12-03T17:18:09.448Z,8.48
2022-12-03T17:20:37.976Z,8.13
2022-12-03T17:23:05.203Z,8.68
2022-12-03T17:25:37.600Z,7.97
2022-12-03T17:30:46.175Z,10.05
2022-12-03T17:33:12.882Z,8.77
2022-12-03T17:35:43.385Z,8.13
2022-12-03T17:38:09.999Z,8.13
2022-12-03T17:40:36.936Z,14.82
2022-12-03T17:43:03.771Z,10.27
2022-12-03T17:45:30.386Z,12.10
2022-12-03T17:47:56.932Z,9.55
2022-12-03T17:50:23.680Z,16.48
2022-12-03T17:52:50.582Z,16.98
2022-12-03T17:55:26.466Z,12.35
2022-12-03T17:58:08.165Z,8.95
2022-12-03T18:00:34.952Z,8.85
2022-12-03T18:03:01.634Z,8.73
2022-12-03T18:05:30.887Z,8.88
2022-12-03T18:07:57.651Z,9.18
2022-12-03T18:10:24.412Z,9.65
2022-12-03T18:12:58.288Z,8.60
2022-12-03T18:15:27.969Z,11.60
2022-12-03T18:17:58.094Z,10.43
2022-12-03T18:20:24.643Z,10.63
2022-12-03T18:22:52.114Z,13.07
2022-12-03T18:25:22.953Z,19.77
2022-12-03T18:27:49.630Z,11.77
2022-12-03T18:30:20.294Z,11.82
2022-12-03T18:32:47.868Z,14.95
2022-12-03T18:35:14.576Z,11.98
2022-12-03T18:37:41.539Z,10.45
2022-12-03T18:40:16.351Z,11.05
2022-12-03T18:42:42.879Z,8.55
2022-12-03T18:45:13.227Z,13.93
2022-12-03T18:47:40.041Z,9.35
2022-12-03T18:50:07.918Z,8.50
2022-12-03T18:52:39.685Z,8.88
2022-12-03T18:55:07.403Z,9.15
2022-12-03T18:57:34.087Z,8.77
2022-12-03T19:00:13.056Z,11.38
2022-12-03T19:05:27.334Z,18.13
2022-12-03T19:07:55.604Z,16.95
2022-12-03T19:10:23.082Z,14.00
2022-12-03T19:12:49.669Z,13.02
2022-12-03T19:15:19.346Z,10.32
2022-12-03T19:17:53.212Z,8.23
2022-12-03T19:20:19.800Z,8.32
2022-12-03T19:22:46.415Z,8.48
2022-12-03T19:25:13.072Z,8.48
2022-12-03T19:27:42.693Z,7.70
2022-12-03T19:30:10.775Z,9.85
2022-12-03T19:32:37.376Z,10.38
2022-12-03T19:35:05.325Z,13.25
2022-12-03T19:37:35.830Z,10.05
2022-12-03T19:40:02.671Z,10.95
2022-12-03T19:42:31.070Z,11.93
2022-12-03T19:44:57.622Z,11.30
2022-12-03T19:47:25.625Z,10.15
2022-12-03T19:49:55.638Z,10.80
2022-12-03T19:52:22.554Z,10.50
2022-12-03T19:54:49.199Z,12.95
2022-12-03T19:57:22.891Z,10.15
2022-12-03T19:59:50.267Z,8.52
2022-12-03T20:02:17.196Z,8.30
2022-12-03T20:04:44.245Z,8.43
2022-12-03T20:07:11.055Z,8.15
2022-12-03T20:09:37.948Z,14.88
2022-12-03T20:12:04.846Z,11.50
2022-12-03T20:14:31.744Z,9.50
2022-12-03T20:16:58.661Z,8.90
2022-12-03T20:19:25.532Z,9.40
2022-12-03T20:21:53.708Z,8.65
2022-12-03T20:24:22.121Z,8.45
2022-12-03T20:26:49.689Z,12.05
2022-12-03T20:29:16.717Z,8.52
2022-12-03T20:31:44.339Z,8.98
2022-12-03T20:34:11.359Z,8.15
2022-12-03T20:36:39.350Z,9.50
2022-12-03T20:39:08.129Z,8.38
2022-12-03T20:41:36.262Z,8.27
2022-12-03T20:44:03.484Z,8.75
2022-12-03T20:46:31.328Z,10.55
2022-12-03T20:48:59.124Z,9.70
2022-12-03T20:51:30.114Z,9.00
2022-12-03T20:53:58.335Z,14.57
2022-12-03T20:56:28.180Z,8.52
2022-12-03T20:58:54.836Z,8.55
2022-12-03T21:01:24.506Z,10.07
2022-12-03T21:03:52.534Z,10.52
2022-12-03T21:06:20.637Z,9.60
2022-12-03T21:08:48.455Z,9.02
2022-12-03T21:11:18.139Z,8.93
2022-12-03T21:13:46.363Z,8.68
2022-12-03T21:16:34.168Z,11.27
2022-12-03T21:19:06.959Z,9.23
2022-12-03T21:21:35.123Z,10.38
2022-12-03T21:24:01.780Z,9.15
2022-12-03T21:26:28.538Z,15.25
2022-12-03T21:28:55.400Z,9.88
2022-12-03T21:31:25.883Z,14.35
2022-12-03T21:33:54.508Z,8.90
2022-12-03T21:36:21.349Z,9.18
2022-12-03T21:38:48.281Z,9.18
2022-12-03T21:41:14.999Z,8.98
2022-12-03T21:43:42.745Z,10.82
2022-12-03T21:47:09.746Z,8.80
2022-12-03T21:49:00.130Z,8.82
2022-12-03T21:51:47.149Z,10.07
2022-12-03T21:54:14.203Z,8.50
2022-12-03T21:56:40.736Z,9.05
2022-12-03T21:59:10.271Z,9.40
2022-12-03T22:01:38.920Z,8.60
2022-12-03T22:04:08.042Z,9.70
2022-12-03T22:06:34.738Z,8.50
2022-12-03T22:09:01.673Z,8.55
2022-12-03T22:11:28.381Z,10.70
2022-12-03T22:13:59.133Z,9.60
2022-12-03T22:16:26.416Z,9.23
2022-12-03T22:18:54.647Z,9.13
2022-12-03T22:21:22.029Z,10.05
2022-12-03T22:23:50.078Z,10.63
2022-12-03T22:26:19.537Z,7.93
2022-12-03T22:28:49.570Z,8.15
2022-12-03T22:31:20.558Z,13.30
2022-12-03T22:33:50.062Z,10.20
2022-12-03T22:36:21.987Z,10.45
2022-12-03T22:38:50.406Z,9.48
2022-12-03T22:41:17.731Z,10.23
2022-12-03T22:43:46.126Z,9.15
2022-12-03T22:46:13.794Z,9.73
2022-12-03T22:48:44.997Z,9.60
2022-12-03T22:51:23.985Z,15.93
2022-12-03T22:53:59.631Z,8.68
2022-12-03T22:56:28.836Z,11.55
2022-12-03T22:58:58.745Z,8.88
2022-12-03T23:01:31.466Z,8.50
2022-12-03T23:03:59.019Z,7.18
2022-12-03T23:06:26.917Z,7.80
2022-12-03T23:08:54.249Z,7.18
2022-12-03T23:11:21.060Z,7.63
2022-12-03T23:13:47.896Z,7.47
2022-12-03T23:16:17.948Z,7.05
2022-12-03T23:18:45.090Z,6.70
2022-12-03T23:21:22.789Z,7.63
2022-12-03T23:23:54.126Z,6.22
2022-12-03T23:26:21.214Z,6.43
2022-12-03T23:28:48.463Z,6.75
2022-12-03T23:31:20.990Z,7.03
2022-12-03T23:33:48.629Z,6.90
2022-12-03T23:36:24.065Z,6.13
2022-12-03T23:38:50.781Z,6.55
2022-12-03T23:41:20.078Z,21.90
2022-12-03T23:43:47.360Z,10.82
2022-12-03T23:46:21.225Z,14.00
2022-12-03T23:48:48.214Z,12.52
2022-12-03T23:51:18.664Z,6.85
2022-12-03T23:53:46.310Z,6.60
2022-12-03T23:56:19.124Z,7.10
2022-12-03T23:58:46.961Z,7.20
